Hauptseite
METAR-TAF:

METAR-TAF

Flughäfen :

Flughafen Nouakchott-Oumtounsy

Nouakchott, Mauretanien

Breite: 18-18-36N, Länge: 015-58-11W, Höhe: 3 m

Beobachtung

Neuester Wetterbericht von vor 45 Minuten, um 04:30 UTC
Wind 7 kt aus Nord/Nordost
Temperatur 21°C
Luftfeuchtigkeit 38%
Luftdruck 1011 hPa
Sichtweite 10 km oder mehr
keine Wolken unter 1500 m und keine Kumulonimbus oder Gewitterwolken

METAR: GQNO 170430Z 03007KT CAVOK 21/06 Q1011 NOSIG

Zeit: 05:15 (05:15 UTC)

Prognose

Neuester Wetterbericht von vor 6 Stunden und 15 Minuten, um 23:00 UTC
Gültige Prognose vom 17 um 00 UTC bis 18 um 06 UTC
Wind 12 kt aus Nordost
Sichtweite: 8000 m

TAF: GQNO 162300Z 1700/1806 04012KT 8000 NSC

Wetterbeobachtungen und Prognosen von mehr als 4000 Flughäfen (METAR und TAF Bericht).

Die verfügbaren Stationen werden durch gelbe und rote Markierungen auf der Karte dargestellt.

Führen Sie die Maus auf sie, um den Namen der Station zu sehen.

Darauf klicken, um die Beobachtung von Wetterbeobachtungen und Prognosen zu sehen.

Um die Karte zu ändern : klicken Sie auf den grünen Tasten mit einem schwarzen Kreuz Zum Vergrößern, auf den grünen Button mit einem Gedankenstrich zu verkleinern, oder auf die grünen Pfeile für benachbarte Karten.


METAR-TAF: